Terminal Aerodrome Forecast
Issued by NWS Northern Indiana

Home | Current Version | Previous Version | Text Only | Print | Product List | Glossary On
Versions: 1 2 3 4 5 6 7 8 9 10 11 12 13 14 15 16 17 18 19
000
FTUS43 KIWX 291125
TAFFWA
TAF
KFWA 291125Z 2912/3012 15005KT P6SM BKN050 OVC150
     FM291800 20007KT P6SM VCSH BKN050 OVC100
      TEMPO 2921/3001 SHRA OVC040
     FM300300 16003KT 6SM BR BKN040=

USA.gov is the U.S. government's official web portal to all federal, state and local government web resources and services.